sensor_id;sensor_type;location;lat;lon;timestamp;P1;durP1;ratioP1;P2;durP2;ratioP2
12476;SDS011;6303;51.504;6.300;2023-02-18T00:00:28;2.60;;;2.35;;
12476;SDS011;6303;51.504;6.300;2023-02-18T00:02:55;2.78;;;2.58;;
12476;SDS011;6303;51.504;6.300;2023-02-18T00:05:22;2.70;;;2.50;;
12476;SDS011;6303;51.504;6.300;2023-02-18T00:07:49;2.65;;;2.45;;
12476;SDS011;6303;51.504;6.300;2023-02-18T00:10:18;2.80;;;2.60;;
12476;SDS011;6303;51.504;6.300;2023-02-18T00:12:46;2.70;;;2.50;;
12476;SDS011;6303;51.504;6.300;2023-02-18T00:15:13;2.63;;;2.42;;
12476;SDS011;6303;51.504;6.300;2023-02-18T00:17:40;2.92;;;2.60;;
12476;SDS011;6303;51.504;6.300;2023-02-18T00:20:07;2.67;;;2.47;;
12476;SDS011;6303;51.504;6.300;2023-02-18T00:22:34;2.70;;;2.50;;
12476;SDS011;6303;51.504;6.300;2023-02-18T00:25:01;2.80;;;2.60;;
12476;SDS011;6303;51.504;6.300;2023-02-18T00:27:30;2.70;;;2.50;;
12476;SDS011;6303;51.504;6.300;2023-02-18T00:29:57;2.50;;;2.30;;
12476;SDS011;6303;51.504;6.300;2023-02-18T00:32:24;2.70;;;2.50;;
12476;SDS011;6303;51.504;6.300;2023-02-18T00:34:51;2.40;;;2.20;;
12476;SDS011;6303;51.504;6.300;2023-02-18T00:37:19;2.58;;;2.40;;
12476;SDS011;6303;51.504;6.300;2023-02-18T00:39:46;2.72;;;2.30;;
12476;SDS011;6303;51.504;6.300;2023-02-18T00:42:13;2.22;;;2.10;;
12476;SDS011;6303;51.504;6.300;2023-02-18T00:44:41;2.83;;;2.63;;
12476;SDS011;6303;51.504;6.300;2023-02-18T00:47:08;2.50;;;2.30;;
12476;SDS011;6303;51.504;6.300;2023-02-18T00:49:35;2.30;;;2.10;;
12476;SDS011;6303;51.504;6.300;2023-02-18T00:52:02;2.80;;;2.50;;
12476;SDS011;6303;51.504;6.300;2023-02-18T00:54:31;2.60;;;2.28;;
12476;SDS011;6303;51.504;6.300;2023-02-18T00:56:59;2.78;;;2.58;;
12476;SDS011;6303;51.504;6.300;2023-02-18T00:59:26;2.50;;;2.30;;
12476;SDS011;6303;51.504;6.300;2023-02-18T01:01:54;2.70;;;2.50;;
12476;SDS011;6303;51.504;6.300;2023-02-18T01:04:21;2.75;;;2.55;;
12476;SDS011;6303;51.504;6.300;2023-02-18T01:06:48;2.55;;;2.35;;
12476;SDS011;6303;51.504;6.300;2023-02-18T01:09:16;2.58;;;2.20;;
12476;SDS011;6303;51.504;6.300;2023-02-18T01:11:43;2.80;;;2.45;;
12476;SDS011;6303;51.504;6.300;2023-02-18T01:14:10;2.90;;;2.60;;
12476;SDS011;6303;51.504;6.300;2023-02-18T01:16:37;2.58;;;2.38;;
12476;SDS011;6303;51.504;6.300;2023-02-18T01:19:08;2.60;;;2.40;;
12476;SDS011;6303;51.504;6.300;2023-02-18T01:21:36;2.80;;;2.60;;
12476;SDS011;6303;51.504;6.300;2023-02-18T01:24:04;2.70;;;2.50;;
12476;SDS011;6303;51.504;6.300;2023-02-18T01:26:34;2.15;;;2.00;;
12476;SDS011;6303;51.504;6.300;2023-02-18T01:29:01;2.50;;;2.30;;
12476;SDS011;6303;51.504;6.300;2023-02-18T01:31:28;2.80;;;2.60;;
12476;SDS011;6303;51.504;6.300;2023-02-18T01:33:57;2.55;;;2.35;;
12476;SDS011;6303;51.504;6.300;2023-02-18T01:36:28;2.65;;;2.45;;
12476;SDS011;6303;51.504;6.300;2023-02-18T01:38:55;2.83;;;2.38;;
12476;SDS011;6303;51.504;6.300;2023-02-18T01:41:22;2.60;;;2.40;;
12476;SDS011;6303;51.504;6.300;2023-02-18T01:46:38;2.50;;;2.28;;
12476;SDS011;6303;51.504;6.300;2023-02-18T01:49:05;2.53;;;2.33;;
12476;SDS011;6303;51.504;6.300;2023-02-18T01:51:36;2.20;;;2.10;;
12476;SDS011;6303;51.504;6.300;2023-02-18T01:54:05;2.63;;;2.42;;
12476;SDS011;6303;51.504;6.300;2023-02-18T01:56:37;2.58;;;2.38;;
12476;SDS011;6303;51.504;6.300;2023-02-18T01:59:09;2.83;;;2.63;;
12476;SDS011;6303;51.504;6.300;2023-02-18T02:01:39;2.40;;;2.28;;
12476;SDS011;6303;51.504;6.300;2023-02-18T02:04:09;2.58;;;2.38;;
12476;SDS011;6303;51.504;6.300;2023-02-18T02:06:37;2.78;;;2.58;;
12476;SDS011;6303;51.504;6.300;2023-02-18T02:09:06;2.70;;;2.40;;
12476;SDS011;6303;51.504;6.300;2023-02-18T02:11:53;2.28;;;2.10;;
12476;SDS011;6303;51.504;6.300;2023-02-18T02:14:34;2.33;;;2.20;;
12476;SDS011;6303;51.504;6.300;2023-02-18T02:17:21;2.30;;;2.10;;
12476;SDS011;6303;51.504;6.300;2023-02-18T02:20:08;2.70;;;2.50;;
12476;SDS011;6303;51.504;6.300;2023-02-18T02:35:17;2.20;;;2.10;;
12476;SDS011;6303;51.504;6.300;2023-02-18T02:37:52;2.10;;;2.00;;
12476;SDS011;6303;51.504;6.300;2023-02-18T02:40:26;2.60;;;2.40;;
12476;SDS011;6303;51.504;6.300;2023-02-18T02:43:00;2.10;;;2.00;;
12476;SDS011;6303;51.504;6.300;2023-02-18T02:45:38;2.20;;;2.05;;
12476;SDS011;6303;51.504;6.300;2023-02-18T02:48:14;2.20;;;2.00;;
12476;SDS011;6303;51.504;6.300;2023-02-18T02:50:52;2.05;;;1.90;;
12476;SDS011;6303;51.504;6.300;2023-02-18T02:53:23;1.92;;;1.83;;
12476;SDS011;6303;51.504;6.300;2023-02-18T02:55:53;2.15;;;1.95;;
12476;SDS011;6303;51.504;6.300;2023-02-18T02:58:20;2.22;;;2.03;;
12476;SDS011;6303;51.504;6.300;2023-02-18T03:00:52;1.92;;;1.83;;
12476;SDS011;6303;51.504;6.300;2023-02-18T03:03:42;2.03;;;1.92;;
12476;SDS011;6303;51.504;6.300;2023-02-18T03:06:32;2.15;;;1.98;;
12476;SDS011;6303;51.504;6.300;2023-02-18T03:09:19;1.90;;;1.80;;
12476;SDS011;6303;51.504;6.300;2023-02-18T03:11:52;2.20;;;2.00;;
12476;SDS011;6303;51.504;6.300;2023-02-18T03:14:33;1.80;;;1.70;;
12476;SDS011;6303;51.504;6.300;2023-02-18T03:17:10;2.13;;;1.95;;
12476;SDS011;6303;51.504;6.300;2023-02-18T03:19:48;1.95;;;1.85;;
12476;SDS011;6303;51.504;6.300;2023-02-18T03:22:22;1.90;;;1.80;;
12476;SDS011;6303;51.504;6.300;2023-02-18T03:24:55;2.00;;;1.90;;
12476;SDS011;6303;51.504;6.300;2023-02-18T03:27:24;2.25;;;2.05;;
12476;SDS011;6303;51.504;6.300;2023-02-18T03:29:56;1.90;;;1.80;;
12476;SDS011;6303;51.504;6.300;2023-02-18T03:32:27;2.00;;;1.90;;
12476;SDS011;6303;51.504;6.300;2023-02-18T03:34:57;2.42;;;2.25;;
12476;SDS011;6303;51.504;6.300;2023-02-18T03:37:30;2.00;;;1.90;;
12476;SDS011;6303;51.504;6.300;2023-02-18T03:40:02;1.98;;;1.88;;
12476;SDS011;6303;51.504;6.300;2023-02-18T03:42:31;2.00;;;1.90;;
12476;SDS011;6303;51.504;6.300;2023-02-18T03:44:59;2.35;;;1.98;;
12476;SDS011;6303;51.504;6.300;2023-02-18T03:47:26;1.88;;;1.77;;
12476;SDS011;6303;51.504;6.300;2023-02-18T03:49:53;2.30;;;2.10;;
12476;SDS011;6303;51.504;6.300;2023-02-18T03:52:20;2.47;;;2.28;;
12476;SDS011;6303;51.504;6.300;2023-02-18T03:54:50;2.20;;;2.00;;
12476;SDS011;6303;51.504;6.300;2023-02-18T03:57:17;1.90;;;1.80;;
12476;SDS011;6303;51.504;6.300;2023-02-18T03:59:44;1.90;;;1.80;;
12476;SDS011;6303;51.504;6.300;2023-02-18T04:02:11;1.92;;;1.80;;
12476;SDS011;6303;51.504;6.300;2023-02-18T04:04:38;1.75;;;1.65;;
12476;SDS011;6303;51.504;6.300;2023-02-18T04:07:05;1.90;;;1.80;;
12476;SDS011;6303;51.504;6.300;2023-02-18T04:09:32;1.90;;;1.80;;
12476;SDS011;6303;51.504;6.300;2023-02-18T04:12:00;1.80;;;1.70;;
12476;SDS011;6303;51.504;6.300;2023-02-18T04:14:27;1.90;;;1.80;;
12476;SDS011;6303;51.504;6.300;2023-02-18T04:16:54;1.58;;;1.48;;
12476;SDS011;6303;51.504;6.300;2023-02-18T04:19:21;1.80;;;1.70;;
12476;SDS011;6303;51.504;6.300;2023-02-18T04:21:48;1.60;;;1.50;;
12476;SDS011;6303;51.504;6.300;2023-02-18T04:24:15;1.70;;;1.60;;
12476;SDS011;6303;51.504;6.300;2023-02-18T04:26:42;1.67;;;1.58;;
12476;SDS011;6303;51.504;6.300;2023-02-18T04:29:10;1.50;;;1.40;;
12476;SDS011;6303;51.504;6.300;2023-02-18T04:31:37;1.58;;;1.48;;
12476;SDS011;6303;51.504;6.300;2023-02-18T04:34:04;1.83;;;1.48;;
12476;SDS011;6303;51.504;6.300;2023-02-18T04:36:32;1.80;;;1.70;;
12476;SDS011;6303;51.504;6.300;2023-02-18T04:38:59;1.35;;;1.25;;
12476;SDS011;6303;51.504;6.300;2023-02-18T04:41:26;1.55;;;1.45;;
12476;SDS011;6303;51.504;6.300;2023-02-18T04:43:53;1.58;;;1.48;;
12476;SDS011;6303;51.504;6.300;2023-02-18T04:46:21;1.50;;;1.40;;
12476;SDS011;6303;51.504;6.300;2023-02-18T04:48:48;1.45;;;1.35;;
12476;SDS011;6303;51.504;6.300;2023-02-18T04:51:15;1.42;;;1.33;;
12476;SDS011;6303;51.504;6.300;2023-02-18T04:53:42;1.23;;;1.23;;
12476;SDS011;6303;51.504;6.300;2023-02-18T04:56:10;1.20;;;1.20;;
12476;SDS011;6303;51.504;6.300;2023-02-18T04:58:37;1.40;;;1.30;;
12476;SDS011;6303;51.504;6.300;2023-02-18T05:01:04;1.20;;;1.20;;
12476;SDS011;6303;51.504;6.300;2023-02-18T05:03:32;1.30;;;1.30;;
12476;SDS011;6303;51.504;6.300;2023-02-18T05:05:59;1.23;;;1.13;;
12476;SDS011;6303;51.504;6.300;2023-02-18T05:08:26;1.20;;;1.20;;
12476;SDS011;6303;51.504;6.300;2023-02-18T05:10:53;1.17;;;1.17;;
12476;SDS011;6303;51.504;6.300;2023-02-18T05:13:20;1.10;;;1.10;;
12476;SDS011;6303;51.504;6.300;2023-02-18T05:15:48;1.17;;;1.17;;
12476;SDS011;6303;51.504;6.300;2023-02-18T05:18:15;1.20;;;1.20;;
12476;SDS011;6303;51.504;6.300;2023-02-18T05:20:43;1.08;;;1.08;;
12476;SDS011;6303;51.504;6.300;2023-02-18T05:23:10;1.30;;;1.20;;
12476;SDS011;6303;51.504;6.300;2023-02-18T05:25:37;1.00;;;1.00;;
12476;SDS011;6303;51.504;6.300;2023-02-18T05:28:04;1.20;;;1.10;;
12476;SDS011;6303;51.504;6.300;2023-02-18T05:30:31;1.40;;;1.30;;
12476;SDS011;6303;51.504;6.300;2023-02-18T05:32:58;0.90;;;0.90;;
12476;SDS011;6303;51.504;6.300;2023-02-18T05:35:25;1.00;;;1.00;;
12476;SDS011;6303;51.504;6.300;2023-02-18T05:37:54;1.00;;;1.00;;
12476;SDS011;6303;51.504;6.300;2023-02-18T05:40:21;1.48;;;1.00;;
12476;SDS011;6303;51.504;6.300;2023-02-18T05:42:48;1.00;;;1.00;;
12476;SDS011;6303;51.504;6.300;2023-02-18T05:45:15;1.10;;;1.10;;
12476;SDS011;6303;51.504;6.300;2023-02-18T05:47:42;0.93;;;0.93;;
12476;SDS011;6303;51.504;6.300;2023-02-18T05:50:09;0.90;;;0.90;;
12476;SDS011;6303;51.504;6.300;2023-02-18T05:52:36;1.10;;;1.10;;
12476;SDS011;6303;51.504;6.300;2023-02-18T05:55:05;1.13;;;1.13;;
12476;SDS011;6303;51.504;6.300;2023-02-18T05:57:33;0.88;;;0.88;;
12476;SDS011;6303;51.504;6.300;2023-02-18T06:00:00;0.90;;;0.90;;
12476;SDS011;6303;51.504;6.300;2023-02-18T06:02:30;3.50;;;1.15;;
12476;SDS011;6303;51.504;6.300;2023-02-18T06:04:57;1.00;;;1.00;;
12476;SDS011;6303;51.504;6.300;2023-02-18T06:07:24;1.05;;;1.00;;
12476;SDS011;6303;51.504;6.300;2023-02-18T06:09:51;1.10;;;1.10;;
12476;SDS011;6303;51.504;6.300;2023-02-18T06:12:19;1.05;;;1.05;;
12476;SDS011;6303;51.504;6.300;2023-02-18T06:14:46;1.83;;;1.15;;
12476;SDS011;6303;51.504;6.300;2023-02-18T06:17:13;1.40;;;1.23;;
12476;SDS011;6303;51.504;6.300;2023-02-18T06:19:43;2.13;;;1.20;;
12476;SDS011;6303;51.504;6.300;2023-02-18T06:22:10;2.45;;;1.20;;
12476;SDS011;6303;51.504;6.300;2023-02-18T06:24:37;1.30;;;1.20;;
12476;SDS011;6303;51.504;6.300;2023-02-18T06:27:04;1.73;;;1.02;;
12476;SDS011;6303;51.504;6.300;2023-02-18T06:32:01;1.60;;;1.20;;
12476;SDS011;6303;51.504;6.300;2023-02-18T06:34:28;1.33;;;1.10;;
12476;SDS011;6303;51.504;6.300;2023-02-18T06:36:55;1.80;;;1.17;;
12476;SDS011;6303;51.504;6.300;2023-02-18T06:39:22;3.33;;;1.40;;
12476;SDS011;6303;51.504;6.300;2023-02-18T06:41:49;1.30;;;1.20;;
12476;SDS011;6303;51.504;6.300;2023-02-18T06:44:16;2.05;;;1.20;;
12476;SDS011;6303;51.504;6.300;2023-02-18T06:46:44;2.63;;;1.20;;
12476;SDS011;6303;51.504;6.300;2023-02-18T06:49:11;1.33;;;1.10;;
12476;SDS011;6303;51.504;6.300;2023-02-18T06:51:38;1.20;;;1.10;;
12476;SDS011;6303;51.504;6.300;2023-02-18T06:54:05;1.05;;;1.05;;
12476;SDS011;6303;51.504;6.300;2023-02-18T06:56:32;1.13;;;1.02;;
12476;SDS011;6303;51.504;6.300;2023-02-18T06:58:59;1.05;;;0.98;;
12476;SDS011;6303;51.504;6.300;2023-02-18T07:01:26;1.00;;;1.00;;
12476;SDS011;6303;51.504;6.300;2023-02-18T07:03:55;1.58;;;1.02;;
12476;SDS011;6303;51.504;6.300;2023-02-18T07:06:22;1.60;;;1.30;;
12476;SDS011;6303;51.504;6.300;2023-02-18T07:08:49;1.40;;;1.10;;
12476;SDS011;6303;51.504;6.300;2023-02-18T07:11:16;1.48;;;0.93;;
12476;SDS011;6303;51.504;6.300;2023-02-18T07:13:43;1.02;;;1.02;;
12476;SDS011;6303;51.504;6.300;2023-02-18T07:16:10;1.48;;;1.20;;
12476;SDS011;6303;51.504;6.300;2023-02-18T07:18:37;0.98;;;0.98;;
12476;SDS011;6303;51.504;6.300;2023-02-18T07:21:06;1.35;;;0.88;;
12476;SDS011;6303;51.504;6.300;2023-02-18T07:23:33;0.80;;;0.80;;
12476;SDS011;6303;51.504;6.300;2023-02-18T07:26:04;1.02;;;1.02;;
12476;SDS011;6303;51.504;6.300;2023-02-18T07:28:32;0.80;;;0.80;;
12476;SDS011;6303;51.504;6.300;2023-02-18T07:30:59;1.17;;;0.80;;
12476;SDS011;6303;51.504;6.300;2023-02-18T07:33:26;1.00;;;0.90;;
12476;SDS011;6303;51.504;6.300;2023-02-18T07:35:53;0.80;;;0.80;;
12476;SDS011;6303;51.504;6.300;2023-02-18T07:38:22;1.10;;;0.80;;
12476;SDS011;6303;51.504;6.300;2023-02-18T07:40:50;0.90;;;0.70;;
12476;SDS011;6303;51.504;6.300;2023-02-18T07:43:17;0.80;;;0.80;;
12476;SDS011;6303;51.504;6.300;2023-02-18T07:45:44;0.80;;;0.80;;
12476;SDS011;6303;51.504;6.300;2023-02-18T07:48:12;0.90;;;0.90;;
12476;SDS011;6303;51.504;6.300;2023-02-18T07:50:39;0.70;;;0.70;;
12476;SDS011;6303;51.504;6.300;2023-02-18T07:53:07;0.70;;;0.70;;
12476;SDS011;6303;51.504;6.300;2023-02-18T07:55:37;0.70;;;0.70;;
12476;SDS011;6303;51.504;6.300;2023-02-18T07:58:16;0.73;;;0.73;;
12476;SDS011;6303;51.504;6.300;2023-02-18T08:00:44;0.80;;;0.80;;
12476;SDS011;6303;51.504;6.300;2023-02-18T08:03:14;0.85;;;0.80;;
12476;SDS011;6303;51.504;6.300;2023-02-18T08:05:41;0.60;;;0.60;;
12476;SDS011;6303;51.504;6.300;2023-02-18T08:08:11;0.68;;;0.65;;
12476;SDS011;6303;51.504;6.300;2023-02-18T08:10:40;0.60;;;0.60;;
12476;SDS011;6303;51.504;6.300;2023-02-18T08:13:08;0.82;;;0.80;;
12476;SDS011;6303;51.504;6.300;2023-02-18T08:15:35;0.73;;;0.73;;
12476;SDS011;6303;51.504;6.300;2023-02-18T08:18:02;0.75;;;0.75;;
12476;SDS011;6303;51.504;6.300;2023-02-18T08:20:30;0.75;;;0.73;;
12476;SDS011;6303;51.504;6.300;2023-02-18T08:22:57;0.80;;;0.70;;
12476;SDS011;6303;51.504;6.300;2023-02-18T08:25:24;0.93;;;0.65;;
12476;SDS011;6303;51.504;6.300;2023-02-18T08:27:53;1.27;;;0.90;;
12476;SDS011;6303;51.504;6.300;2023-02-18T08:30:20;0.73;;;0.70;;
12476;SDS011;6303;51.504;6.300;2023-02-18T08:32:47;0.60;;;0.60;;
12476;SDS011;6303;51.504;6.300;2023-02-18T08:35:14;0.60;;;0.60;;
12476;SDS011;6303;51.504;6.300;2023-02-18T08:37:41;0.93;;;0.70;;
12476;SDS011;6303;51.504;6.300;2023-02-18T08:40:10;0.75;;;0.75;;
12476;SDS011;6303;51.504;6.300;2023-02-18T08:42:38;0.68;;;0.68;;
12476;SDS011;6303;51.504;6.300;2023-02-18T08:45:07;3.13;;;0.70;;
12476;SDS011;6303;51.504;6.300;2023-02-18T08:47:34;1.77;;;0.63;;
12476;SDS011;6303;51.504;6.300;2023-02-18T08:50:01;2.15;;;0.80;;
12476;SDS011;6303;51.504;6.300;2023-02-18T08:52:28;1.33;;;0.90;;
12476;SDS011;6303;51.504;6.300;2023-02-18T08:54:55;1.85;;;1.00;;
12476;SDS011;6303;51.504;6.300;2023-02-18T08:57:22;1.63;;;0.80;;
12476;SDS011;6303;51.504;6.300;2023-02-18T08:59:49;3.22;;;0.80;;
12476;SDS011;6303;51.504;6.300;2023-02-18T09:02:18;2.42;;;0.80;;
12476;SDS011;6303;51.504;6.300;2023-02-18T09:04:45;0.80;;;0.80;;
12476;SDS011;6303;51.504;6.300;2023-02-18T09:07:12;1.60;;;0.70;;
12476;SDS011;6303;51.504;6.300;2023-02-18T09:09:39;1.75;;;0.80;;
12476;SDS011;6303;51.504;6.300;2023-02-18T09:12:06;1.83;;;1.05;;
12476;SDS011;6303;51.504;6.300;2023-02-18T09:14:34;2.40;;;0.93;;
12476;SDS011;6303;51.504;6.300;2023-02-18T09:17:01;1.15;;;0.80;;
12476;SDS011;6303;51.504;6.300;2023-02-18T09:19:29;1.52;;;0.90;;
12476;SDS011;6303;51.504;6.300;2023-02-18T09:21:56;0.90;;;0.80;;
12476;SDS011;6303;51.504;6.300;2023-02-18T09:24:23;1.95;;;0.93;;
12476;SDS011;6303;51.504;6.300;2023-02-18T09:26:50;1.92;;;1.00;;
12476;SDS011;6303;51.504;6.300;2023-02-18T09:29:18;1.65;;;0.80;;
12476;SDS011;6303;51.504;6.300;2023-02-18T09:31:45;1.77;;;1.10;;
12476;SDS011;6303;51.504;6.300;2023-02-18T09:34:12;2.88;;;1.00;;
12476;SDS011;6303;51.504;6.300;2023-02-18T09:36:41;0.95;;;0.95;;
12476;SDS011;6303;51.504;6.300;2023-02-18T09:39:08;1.60;;;0.80;;
12476;SDS011;6303;51.504;6.300;2023-02-18T09:41:38;2.10;;;1.08;;
12476;SDS011;6303;51.504;6.300;2023-02-18T09:44:10;2.25;;;1.20;;
12476;SDS011;6303;51.504;6.300;2023-02-18T09:46:42;1.08;;;0.88;;
12476;SDS011;6303;51.504;6.300;2023-02-18T09:49:14;1.63;;;1.08;;
12476;SDS011;6303;51.504;6.300;2023-02-18T09:51:45;1.63;;;1.00;;
12476;SDS011;6303;51.504;6.300;2023-02-18T09:54:13;1.83;;;1.00;;
12476;SDS011;6303;51.504;6.300;2023-02-18T09:56:43;2.20;;;1.08;;
12476;SDS011;6303;51.504;6.300;2023-02-18T09:59:12;2.05;;;1.13;;
12476;SDS011;6303;51.504;6.300;2023-02-18T10:01:42;1.67;;;0.90;;
12476;SDS011;6303;51.504;6.300;2023-02-18T10:04:13;1.63;;;1.00;;
12476;SDS011;6303;51.504;6.300;2023-02-18T10:06:45;1.48;;;1.00;;
12476;SDS011;6303;51.504;6.300;2023-02-18T10:09:15;1.70;;;1.05;;
12476;SDS011;6303;51.504;6.300;2023-02-18T10:11:47;2.28;;;1.00;;
12476;SDS011;6303;51.504;6.300;2023-02-18T10:14:15;2.42;;;1.20;;
12476;SDS011;6303;51.504;6.300;2023-02-18T10:16:43;1.35;;;0.85;;
12476;SDS011;6303;51.504;6.300;2023-02-18T10:19:17;1.80;;;1.10;;
12476;SDS011;6303;51.504;6.300;2023-02-18T10:21:49;2.03;;;1.10;;
12476;SDS011;6303;51.504;6.300;2023-02-18T10:24:21;1.00;;;0.90;;
12476;SDS011;6303;51.504;6.300;2023-02-18T10:26:52;1.42;;;0.98;;
12476;SDS011;6303;51.504;6.300;2023-02-18T10:29:21;1.02;;;0.93;;
12476;SDS011;6303;51.504;6.300;2023-02-18T10:31:50;1.15;;;1.05;;
12476;SDS011;6303;51.504;6.300;2023-02-18T10:34:23;1.20;;;0.95;;
12476;SDS011;6303;51.504;6.300;2023-02-18T10:36:59;1.90;;;1.30;;
12476;SDS011;6303;51.504;6.300;2023-02-18T10:39:35;1.23;;;0.90;;
12476;SDS011;6303;51.504;6.300;2023-02-18T10:42:19;1.15;;;0.90;;
12476;SDS011;6303;51.504;6.300;2023-02-18T10:44:58;1.90;;;0.90;;
12476;SDS011;6303;51.504;6.300;2023-02-18T10:47:36;2.10;;;1.00;;
12476;SDS011;6303;51.504;6.300;2023-02-18T10:50:08;1.35;;;1.00;;
12476;SDS011;6303;51.504;6.300;2023-02-18T10:52:41;1.15;;;1.05;;
12476;SDS011;6303;51.504;6.300;2023-02-18T10:55:10;1.13;;;0.90;;
12476;SDS011;6303;51.504;6.300;2023-02-18T10:57:46;1.65;;;1.00;;
12476;SDS011;6303;51.504;6.300;2023-02-18T11:00:16;1.23;;;0.80;;
12476;SDS011;6303;51.504;6.300;2023-02-18T11:02:59;1.00;;;0.85;;
12476;SDS011;6303;51.504;6.300;2023-02-18T11:05:35;1.40;;;0.88;;
12476;SDS011;6303;51.504;6.300;2023-02-18T11:08:05;1.38;;;1.02;;
12476;SDS011;6303;51.504;6.300;2023-02-18T11:10:37;1.25;;;0.95;;
12476;SDS011;6303;51.504;6.300;2023-02-18T11:13:06;1.13;;;1.00;;
12476;SDS011;6303;51.504;6.300;2023-02-18T11:15:34;1.55;;;0.88;;
12476;SDS011;6303;51.504;6.300;2023-02-18T11:18:11;1.02;;;0.90;;
12476;SDS011;6303;51.504;6.300;2023-02-18T11:20:39;2.65;;;1.08;;
12476;SDS011;6303;51.504;6.300;2023-02-18T11:23:16;2.47;;;1.25;;
12476;SDS011;6303;51.504;6.300;2023-02-18T11:25:55;1.95;;;1.23;;
12476;SDS011;6303;51.504;6.300;2023-02-18T11:28:30;1.95;;;1.23;;
12476;SDS011;6303;51.504;6.300;2023-02-18T11:31:06;3.30;;;1.10;;
12476;SDS011;6303;51.504;6.300;2023-02-18T11:33:36;1.85;;;0.90;;
12476;SDS011;6303;51.504;6.300;2023-02-18T11:36:10;2.65;;;1.13;;
12476;SDS011;6303;51.504;6.300;2023-02-18T11:38:47;2.83;;;1.20;;
12476;SDS011;6303;51.504;6.300;2023-02-18T11:41:17;4.50;;;1.35;;
12476;SDS011;6303;51.504;6.300;2023-02-18T11:43:47;2.67;;;1.20;;
12476;SDS011;6303;51.504;6.300;2023-02-18T11:46:17;3.97;;;1.30;;
12476;SDS011;6303;51.504;6.300;2023-02-18T11:48:47;4.65;;;1.48;;
12476;SDS011;6303;51.504;6.300;2023-02-18T11:51:16;2.72;;;1.17;;
12476;SDS011;6303;51.504;6.300;2023-02-18T11:53:54;2.58;;;1.25;;
12476;SDS011;6303;51.504;6.300;2023-02-18T11:56:24;2.53;;;1.00;;
12476;SDS011;6303;51.504;6.300;2023-02-18T11:58:53;3.72;;;1.30;;
12476;SDS011;6303;51.504;6.300;2023-02-18T12:01:24;2.40;;;1.00;;
12476;SDS011;6303;51.504;6.300;2023-02-18T12:03:57;2.67;;;1.23;;
12476;SDS011;6303;51.504;6.300;2023-02-18T12:06:31;2.58;;;1.20;;
12476;SDS011;6303;51.504;6.300;2023-02-18T12:09:05;2.10;;;1.13;;
12476;SDS011;6303;51.504;6.300;2023-02-18T12:11:40;3.72;;;1.20;;
12476;SDS011;6303;51.504;6.300;2023-02-18T12:14:11;3.42;;;1.10;;
12476;SDS011;6303;51.504;6.300;2023-02-18T12:16:44;2.92;;;1.23;;
12476;SDS011;6303;51.504;6.300;2023-02-18T12:19:35;1.83;;;1.10;;
12476;SDS011;6303;51.504;6.300;2023-02-18T12:22:17;2.75;;;1.58;;
12476;SDS011;6303;51.504;6.300;2023-02-18T12:24:56;2.03;;;1.10;;
12476;SDS011;6303;51.504;6.300;2023-02-18T12:27:40;1.27;;;1.10;;
12476;SDS011;6303;51.504;6.300;2023-02-18T12:33:11;1.88;;;1.15;;
12476;SDS011;6303;51.504;6.300;2023-02-18T12:35:50;2.70;;;1.52;;
12476;SDS011;6303;51.504;6.300;2023-02-18T12:41:20;2.22;;;1.10;;
12476;SDS011;6303;51.504;6.300;2023-02-18T12:43:55;1.52;;;1.30;;
12476;SDS011;6303;51.504;6.300;2023-02-18T12:46:42;2.33;;;1.13;;
12476;SDS011;6303;51.504;6.300;2023-02-18T12:49:34;1.67;;;1.25;;
12476;SDS011;6303;51.504;6.300;2023-02-18T12:52:21;3.75;;;1.52;;
12476;SDS011;6303;51.504;6.300;2023-02-18T12:57:52;4.43;;;1.50;;
12476;SDS011;6303;51.504;6.300;2023-02-18T13:03:40;1.50;;;1.40;;
12476;SDS011;6303;51.504;6.300;2023-02-18T13:06:36;2.65;;;1.40;;
12476;SDS011;6303;51.504;6.300;2023-02-18T13:09:22;3.17;;;1.70;;
12476;SDS011;6303;51.504;6.300;2023-02-18T13:12:00;1.75;;;1.55;;
12476;SDS011;6303;51.504;6.300;2023-02-18T13:14:35;2.70;;;1.50;;
12476;SDS011;6303;51.504;6.300;2023-02-18T13:17:11;1.40;;;1.30;;
12476;SDS011;6303;51.504;6.300;2023-02-18T13:19:43;1.70;;;1.60;;
12476;SDS011;6303;51.504;6.300;2023-02-18T13:22:13;1.77;;;1.60;;
12476;SDS011;6303;51.504;6.300;2023-02-18T13:24:44;1.58;;;1.40;;
12476;SDS011;6303;51.504;6.300;2023-02-18T13:27:13;2.92;;;1.70;;
12476;SDS011;6303;51.504;6.300;2023-02-18T13:29:50;2.40;;;1.65;;
12476;SDS011;6303;51.504;6.300;2023-02-18T13:32:24;2.80;;;1.60;;
12476;SDS011;6303;51.504;6.300;2023-02-18T13:34:57;2.67;;;1.52;;
12476;SDS011;6303;51.504;6.300;2023-02-18T13:37:31;2.42;;;1.60;;
12476;SDS011;6303;51.504;6.300;2023-02-18T13:40:08;3.00;;;1.77;;
12476;SDS011;6303;51.504;6.300;2023-02-18T13:42:43;3.90;;;1.50;;
12476;SDS011;6303;51.504;6.300;2023-02-18T13:47:58;2.78;;;1.60;;
12476;SDS011;6303;51.504;6.300;2023-02-18T13:50:38;1.70;;;1.52;;
12476;SDS011;6303;51.504;6.300;2023-02-18T13:53:12;2.08;;;1.50;;
12476;SDS011;6303;51.504;6.300;2023-02-18T13:55:51;2.63;;;1.48;;
12476;SDS011;6303;51.504;6.300;2023-02-18T13:58:28;3.92;;;1.92;;
12476;SDS011;6303;51.504;6.300;2023-02-18T14:01:01;7.40;;;2.05;;
12476;SDS011;6303;51.504;6.300;2023-02-18T14:03:32;5.03;;;1.95;;
12476;SDS011;6303;51.504;6.300;2023-02-18T14:06:12;5.32;;;2.10;;
12476;SDS011;6303;51.504;6.300;2023-02-18T14:08:40;3.10;;;1.90;;
12476;SDS011;6303;51.504;6.300;2023-02-18T14:11:24;3.55;;;1.77;;
12476;SDS011;6303;51.504;6.300;2023-02-18T14:14:26;4.40;;;2.03;;
12476;SDS011;6303;51.504;6.300;2023-02-18T14:22:53;7.03;;;2.15;;
12476;SDS011;6303;51.504;6.300;2023-02-18T14:25:21;5.05;;;2.28;;
12476;SDS011;6303;51.504;6.300;2023-02-18T14:28:00;6.75;;;2.42;;
12476;SDS011;6303;51.504;6.300;2023-02-18T14:30:29;5.60;;;2.15;;
12476;SDS011;6303;51.504;6.300;2023-02-18T14:33:05;6.38;;;2.08;;
12476;SDS011;6303;51.504;6.300;2023-02-18T14:35:33;3.70;;;2.00;;
12476;SDS011;6303;51.504;6.300;2023-02-18T14:38:14;3.05;;;2.33;;
12476;SDS011;6303;51.504;6.300;2023-02-18T14:41:04;5.22;;;2.30;;
12476;SDS011;6303;51.504;6.300;2023-02-18T14:44:01;3.88;;;2.13;;
12476;SDS011;6303;51.504;6.300;2023-02-18T14:46:45;2.08;;;1.88;;
12476;SDS011;6303;51.504;6.300;2023-02-18T14:49:33;5.82;;;2.10;;
12476;SDS011;6303;51.504;6.300;2023-02-18T14:52:05;2.42;;;2.05;;
12476;SDS011;6303;51.504;6.300;2023-02-18T14:54:37;3.38;;;2.17;;
12476;SDS011;6303;51.504;6.300;2023-02-18T14:57:07;2.53;;;1.88;;
12476;SDS011;6303;51.504;6.300;2023-02-18T14:59:41;3.13;;;2.20;;
12476;SDS011;6303;51.504;6.300;2023-02-18T15:02:13;5.32;;;2.17;;
12476;SDS011;6303;51.504;6.300;2023-02-18T15:04:45;3.30;;;2.30;;
12476;SDS011;6303;51.504;6.300;2023-02-18T15:07:16;3.55;;;2.58;;
12476;SDS011;6303;51.504;6.300;2023-02-18T15:09:44;3.35;;;2.20;;
12476;SDS011;6303;51.504;6.300;2023-02-18T15:12:13;2.50;;;2.30;;
12476;SDS011;6303;51.504;6.300;2023-02-18T15:14:44;3.33;;;2.20;;
12476;SDS011;6303;51.504;6.300;2023-02-18T15:17:14;4.60;;;2.47;;
12476;SDS011;6303;51.504;6.300;2023-02-18T15:19:43;2.63;;;2.28;;
12476;SDS011;6303;51.504;6.300;2023-02-18T15:22:18;2.92;;;2.20;;
12476;SDS011;6303;51.504;6.300;2023-02-18T15:24:47;3.45;;;2.75;;
12476;SDS011;6303;51.504;6.300;2023-02-18T15:27:17;3.50;;;2.40;;
12476;SDS011;6303;51.504;6.300;2023-02-18T15:29:48;2.92;;;2.15;;
12476;SDS011;6303;51.504;6.300;2023-02-18T15:32:17;2.95;;;2.45;;
12476;SDS011;6303;51.504;6.300;2023-02-18T15:34:49;4.45;;;2.20;;
12476;SDS011;6303;51.504;6.300;2023-02-18T15:37:18;2.58;;;2.38;;
12476;SDS011;6303;51.504;6.300;2023-02-18T15:39:45;2.80;;;2.53;;
12476;SDS011;6303;51.504;6.300;2023-02-18T15:42:15;2.85;;;2.58;;
12476;SDS011;6303;51.504;6.300;2023-02-18T15:44:49;2.75;;;2.40;;
12476;SDS011;6303;51.504;6.300;2023-02-18T15:47:19;4.47;;;2.90;;
12476;SDS011;6303;51.504;6.300;2023-02-18T15:49:47;3.72;;;2.75;;
12476;SDS011;6303;51.504;6.300;2023-02-18T15:52:22;3.83;;;2.88;;
12476;SDS011;6303;51.504;6.300;2023-02-18T15:54:50;2.80;;;2.50;;
12476;SDS011;6303;51.504;6.300;2023-02-18T15:57:18;2.78;;;2.58;;
12476;SDS011;6303;51.504;6.300;2023-02-18T15:59:52;2.80;;;2.58;;